createdAt,value
2023-04-25T00:00:01.491Z,22.80
2023-04-25T00:02:29.925Z,20.73
2023-04-25T00:05:00.545Z,25.00
2023-04-25T00:07:28.872Z,13.00
2023-04-25T00:09:57.023Z,17.30
2023-04-25T00:12:26.469Z,19.63
2023-04-25T00:17:23.109Z,16.50
2023-04-25T00:19:51.285Z,16.83
2023-04-25T00:22:19.356Z,18.53
2023-04-25T00:24:47.497Z,20.20
2023-04-25T00:27:17.155Z,21.00
2023-04-25T00:29:46.741Z,18.47
2023-04-25T00:32:15.047Z,12.80
2023-04-25T00:34:44.746Z,16.03
2023-04-25T00:37:13.641Z,18.60
2023-04-25T00:39:42.995Z,18.33
2023-04-25T00:42:12.348Z,16.60
2023-04-25T00:44:41.572Z,21.63
2023-04-25T00:47:14.709Z,28.23
2023-04-25T00:49:42.910Z,17.33
2023-04-25T00:52:11.473Z,21.80
2023-04-25T00:54:40.073Z,19.47
2023-04-25T00:57:08.378Z,22.83
2023-04-25T00:59:38.401Z,18.20
2023-04-25T01:02:08.353Z,26.80
2023-04-25T01:04:38.353Z,16.50
2023-04-25T01:07:06.800Z,14.30
2023-04-25T01:09:35.160Z,20.47
2023-04-25T01:12:03.949Z,29.27
2023-04-25T01:14:32.397Z,20.83
2023-04-25T01:17:01.201Z,26.23
2023-04-25T01:19:29.568Z,19.47
2023-04-25T01:21:59.210Z,22.73
2023-04-25T01:24:27.911Z,23.53
2023-04-25T01:26:57.880Z,19.43
2023-04-25T01:29:27.084Z,21.80
2023-04-25T01:31:55.737Z,24.50
2023-04-25T01:34:24.034Z,15.70
2023-04-25T01:36:53.051Z,28.10
2023-04-25T01:39:23.014Z,17.70
2023-04-25T01:41:51.461Z,18.43
2023-04-25T01:44:19.936Z,33.20
2023-04-25T01:46:48.105Z,18.40
2023-04-25T01:49:16.458Z,20.40
2023-04-25T01:51:47.325Z,20.60
2023-04-25T01:54:15.893Z,17.30
2023-04-25T01:56:45.417Z,20.07
2023-04-25T01:59:14.027Z,20.43
2023-04-25T02:02:04.620Z,18.47
2023-04-25T02:04:34.797Z,16.90
2023-04-25T02:07:04.131Z,19.50
2023-04-25T02:09:58.455Z,23.03
2023-04-25T02:12:29.967Z,30.10
2023-04-25T02:15:21.894Z,13.67
2023-04-25T02:18:03.234Z,19.33
2023-04-25T02:20:32.583Z,24.13
2023-04-25T02:23:00.941Z,20.77
2023-04-25T02:25:30.275Z,19.83
2023-04-25T02:27:59.770Z,16.27
2023-04-25T02:30:27.972Z,19.47
2023-04-25T02:32:56.352Z,15.50
2023-04-25T02:35:24.698Z,22.90
2023-04-25T02:37:55.739Z,22.03
2023-04-25T02:40:23.901Z,16.03
2023-04-25T02:42:52.540Z,15.03
2023-04-25T02:45:23.411Z,18.77
2023-04-25T02:47:51.658Z,21.50
2023-04-25T02:50:22.218Z,20.43
2023-04-25T02:52:50.647Z,17.90
2023-04-25T02:55:26.239Z,13.00
2023-04-25T02:57:57.434Z,15.33
2023-04-25T03:00:47.253Z,15.23
2023-04-25T03:03:18.550Z,17.83
2023-04-25T03:05:47.862Z,18.97
2023-04-25T03:08:16.408Z,14.10
2023-04-25T03:10:45.864Z,10.67
2023-04-25T03:13:15.840Z,24.23
2023-04-25T03:15:46.590Z,17.93
2023-04-25T03:18:14.877Z,17.57
2023-04-25T03:20:43.859Z,19.93
2023-04-25T03:23:12.126Z,14.17
2023-04-25T03:25:43.878Z,20.07
2023-04-25T03:28:12.344Z,15.47
2023-04-25T03:30:40.492Z,17.13
2023-04-25T03:33:10.086Z,16.00
2023-04-25T03:35:38.323Z,18.37
2023-04-25T03:38:06.351Z,10.57
2023-04-25T03:40:40.536Z,10.73
2023-04-25T03:43:28.988Z,13.60
2023-04-25T03:46:08.057Z,14.10
2023-04-25T03:48:38.764Z,15.80
2023-04-25T03:51:07.005Z,26.60
2023-04-25T03:53:38.250Z,17.77
2023-04-25T03:56:21.863Z,20.57
2023-04-25T03:58:56.217Z,16.43
2023-04-25T04:01:27.258Z,9.13
2023-04-25T04:03:57.153Z,11.83
2023-04-25T04:06:26.921Z,16.83
2023-04-25T04:09:02.685Z,17.90
2023-04-25T04:11:33.407Z,8.20
2023-04-25T04:14:01.561Z,12.03
2023-04-25T04:16:30.982Z,16.20
2023-04-25T04:19:02.164Z,7.33
2023-04-25T04:21:31.327Z,8.47
2023-04-25T04:24:02.270Z,12.20
2023-04-25T04:26:35.356Z,8.63
2023-04-25T04:29:11.686Z,7.90
2023-04-25T04:32:02.083Z,11.50
2023-04-25T04:34:32.838Z,11.50
2023-04-25T04:37:01.358Z,8.37
2023-04-25T04:39:29.866Z,13.73
2023-04-25T04:42:22.237Z,10.30
2023-04-25T04:45:02.642Z,14.00
2023-04-25T04:47:57.319Z,6.40
2023-04-25T04:50:50.311Z,13.93
2023-04-25T04:53:47.443Z,8.77
2023-04-25T04:56:42.905Z,7.87
2023-04-25T04:59:27.629Z,5.97
2023-04-25T05:02:11.222Z,5.90
2023-04-25T05:05:05.342Z,12.17
2023-04-25T05:07:53.613Z,7.37
2023-04-25T05:10:42.962Z,7.33
2023-04-25T05:13:30.030Z,11.03
2023-04-25T05:15:58.190Z,12.00
2023-04-25T05:18:37.806Z,9.37
2023-04-25T05:21:26.407Z,8.70
2023-04-25T05:24:28.221Z,12.90
2023-04-25T05:27:19.477Z,10.93
2023-04-25T05:30:08.050Z,9.20
2023-04-25T05:32:48.528Z,9.53
2023-04-25T05:35:19.908Z,12.13
2023-04-25T05:37:50.087Z,9.10
2023-04-25T05:40:19.737Z,10.40
2023-04-25T05:43:06.529Z,9.77
2023-04-25T05:45:45.592Z,11.00
2023-04-25T05:48:31.095Z,13.10
2023-04-25T05:51:10.611Z,10.50
2023-04-25T05:54:02.063Z,14.83
2023-04-25T05:56:31.560Z,16.33
2023-04-25T05:58:59.789Z,14.70
2023-04-25T06:01:27.903Z,7.23
2023-04-25T06:03:56.419Z,15.20
2023-04-25T06:06:24.975Z,12.07
2023-04-25T06:08:53.081Z,11.33
2023-04-25T06:11:21.371Z,16.33
2023-04-25T06:13:51.359Z,21.87
2023-04-25T06:16:19.788Z,10.17
2023-04-25T06:18:48.071Z,7.40
2023-04-25T06:21:17.248Z,11.43
2023-04-25T06:23:45.875Z,10.23
2023-04-25T06:26:21.011Z,11.27
2023-04-25T06:28:51.120Z,10.33
2023-04-25T06:31:19.317Z,14.63
2023-04-25T06:33:49.423Z,6.87
2023-04-25T06:36:17.767Z,8.97
2023-04-25T06:38:49.251Z,8.13
2023-04-25T06:41:17.602Z,12.97
2023-04-25T06:43:45.945Z,15.17
2023-04-25T06:46:27.518Z,8.67
2023-04-25T06:48:57.082Z,12.73
2023-04-25T06:51:25.422Z,7.57
2023-04-25T06:53:57.005Z,8.20
2023-04-25T06:56:31.982Z,11.70
2023-04-25T06:59:07.817Z,13.30
2023-04-25T07:01:39.985Z,16.73
2023-04-25T07:04:12.931Z,21.93
2023-04-25T07:06:48.506Z,19.67
2023-04-25T07:09:19.192Z,10.80
2023-04-25T07:11:49.239Z,16.10
2023-04-25T07:14:17.561Z,13.10
2023-04-25T07:16:48.159Z,13.60
2023-04-25T07:19:16.519Z,10.67
2023-04-25T07:21:45.472Z,13.57
2023-04-25T07:24:15.350Z,11.73
2023-04-25T07:26:47.553Z,7.20
2023-04-25T07:29:32.509Z,6.67
2023-04-25T07:32:03.569Z,9.80
2023-04-25T07:34:33.017Z,3.43
2023-04-25T07:37:01.662Z,9.37
2023-04-25T07:39:38.027Z,5.90
2023-04-25T07:42:08.973Z,10.57
2023-04-25T07:44:39.974Z,14.70
2023-04-25T07:47:11.656Z,8.17
2023-04-25T07:49:40.042Z,10.90
2023-04-25T07:52:08.703Z,9.70
2023-04-25T07:54:39.374Z,3.83
2023-04-25T07:57:15.900Z,5.13
2023-04-25T07:59:46.078Z,5.20
2023-04-25T08:02:16.405Z,5.80
2023-04-25T08:04:44.681Z,6.80
2023-04-25T08:07:14.667Z,6.80
2023-04-25T08:09:54.871Z,8.03
2023-04-25T08:12:30.506Z,6.87
2023-04-25T08:14:58.767Z,9.73
2023-04-25T08:17:33.961Z,6.60
2023-04-25T08:20:07.251Z,11.83
2023-04-25T08:22:36.047Z,10.30
2023-04-25T08:25:18.496Z,8.80
2023-04-25T08:27:46.590Z,4.80
2023-04-25T08:30:17.515Z,6.87
2023-04-25T08:32:49.977Z,8.20
2023-04-25T08:35:28.005Z,8.77
2023-04-25T08:37:56.405Z,10.00
2023-04-25T08:40:31.193Z,10.80
2023-04-25T08:43:05.451Z,6.93
2023-04-25T08:45:35.345Z,9.73
2023-04-25T08:48:07.613Z,6.50
2023-04-25T08:50:40.622Z,5.40
2023-04-25T08:53:17.465Z,3.87
2023-04-25T08:55:47.212Z,4.67
2023-04-25T08:58:17.283Z,12.50
2023-04-25T09:00:48.309Z,7.07
2023-04-25T09:03:18.874Z,8.00
2023-04-25T09:05:51.290Z,6.87
2023-04-25T09:08:19.694Z,6.93
2023-04-25T09:10:48.084Z,10.37
2023-04-25T09:13:25.816Z,5.97
2023-04-25T09:16:23.232Z,8.30
2023-04-25T09:19:38.279Z,6.87
2023-04-25T09:22:13.282Z,7.47
2023-04-25T09:24:44.531Z,5.27
2023-04-25T09:27:15.081Z,5.73
2023-04-25T09:29:44.088Z,5.03
2023-04-25T09:32:21.595Z,5.63
2023-04-25T09:34:55.850Z,8.70
2023-04-25T09:37:26.958Z,7.50
2023-04-25T09:40:14.578Z,9.57
2023-04-25T09:42:54.593Z,4.30
2023-04-25T09:45:23.465Z,7.87
2023-04-25T09:47:52.411Z,6.50
2023-04-25T09:50:27.371Z,5.47
2023-04-25T09:53:06.582Z,2.77
2023-04-25T09:55:55.050Z,7.87
2023-04-25T09:58:25.594Z,6.60
2023-04-25T10:00:54.535Z,5.90
2023-04-25T10:03:36.809Z,7.20
2023-04-25T10:06:27.675Z,8.73
2023-04-25T10:08:56.925Z,7.00
2023-04-25T10:11:28.242Z,5.33
2023-04-25T10:13:57.831Z,7.07
2023-04-25T10:16:27.540Z,3.63
2023-04-25T10:18:55.756Z,3.87
2023-04-25T10:21:27.962Z,4.83
2023-04-25T10:23:56.647Z,7.00
2023-04-25T10:26:25.609Z,6.00
2023-04-25T10:28:58.673Z,6.13
2023-04-25T10:31:27.242Z,6.27
2023-04-25T10:33:55.859Z,4.30
2023-04-25T10:36:28.226Z,6.27
2023-04-25T10:38:56.429Z,11.00
2023-04-25T10:41:24.899Z,9.57
2023-04-25T10:44:02.313Z,11.33
2023-04-25T10:46:32.257Z,9.73
2023-04-25T10:49:02.587Z,7.10
2023-04-25T10:51:51.396Z,6.73
2023-04-25T10:54:27.047Z,8.37
2023-04-25T10:56:55.222Z,4.37
2023-04-25T10:59:29.748Z,5.63
2023-04-25T11:01:58.686Z,9.77
2023-04-25T11:04:31.805Z,5.57
2023-04-25T11:07:12.858Z,4.90
2023-04-25T11:09:42.821Z,5.23
2023-04-25T11:12:12.992Z,4.70
2023-04-25T11:17:16.290Z,8.43
2023-04-25T11:19:44.991Z,2.43
2023-04-25T11:22:14.654Z,2.67
2023-04-25T11:24:43.754Z,5.27
2023-04-25T11:27:12.247Z,10.40
2023-04-25T11:29:40.615Z,3.73
2023-04-25T11:32:09.678Z,3.07
2023-04-25T11:34:37.881Z,5.37
2023-04-25T11:37:07.163Z,5.27
2023-04-25T11:39:36.912Z,5.67
2023-04-25T11:42:12.149Z,3.90
2023-04-25T11:44:42.759Z,3.60
2023-04-25T11:47:10.942Z,6.37
2023-04-25T11:49:39.171Z,5.90
2023-04-25T11:52:09.515Z,9.43
2023-04-25T11:54:39.993Z,11.77
2023-04-25T11:57:08.176Z,10.33
2023-04-25T11:59:36.406Z,3.73
2023-04-25T12:02:04.610Z,6.80
2023-04-25T12:04:34.432Z,3.83
2023-04-25T12:07:03.609Z,4.30
2023-04-25T12:09:33.765Z,6.10
2023-04-25T12:12:04.895Z,5.83
2023-04-25T12:14:35.834Z,6.30
2023-04-25T12:17:08.905Z,5.60
2023-04-25T12:19:41.678Z,7.93
2023-04-25T12:22:23.339Z,6.07
2023-04-25T12:24:54.303Z,6.03
2023-04-25T12:27:23.797Z,4.03
2023-04-25T12:29:57.313Z,4.57
2023-04-25T12:32:26.081Z,5.33
2023-04-25T12:34:54.289Z,14.70
2023-04-25T12:37:22.573Z,4.23
2023-04-25T12:39:50.758Z,6.67
2023-04-25T12:42:18.910Z,5.80
2023-04-25T12:44:48.778Z,3.03
2023-04-25T12:47:17.043Z,9.57
2023-04-25T12:49:45.275Z,7.10
2023-04-25T12:52:13.352Z,3.93
2023-04-25T12:54:41.579Z,11.80
2023-04-25T12:57:09.858Z,6.13
2023-04-25T12:59:38.109Z,6.43
2023-04-25T13:02:07.675Z,3.50
2023-04-25T13:04:35.995Z,4.53
2023-04-25T13:07:04.555Z,4.40
2023-04-25T13:09:32.864Z,4.30
2023-04-25T13:12:01.050Z,3.97
2023-04-25T13:14:29.145Z,5.50
2023-04-25T13:16:57.470Z,5.27
2023-04-25T13:19:27.207Z,7.83
2023-04-25T13:21:55.508Z,4.33
2023-04-25T13:24:23.718Z,9.57
2023-04-25T13:26:53.529Z,5.37
2023-04-25T13:29:21.682Z,3.53
2023-04-25T13:31:49.891Z,3.63
2023-04-25T13:34:18.056Z,5.20
2023-04-25T13:36:47.649Z,5.73
2023-04-25T13:39:15.785Z,2.50
2023-04-25T13:41:43.913Z,2.80
2023-04-25T13:44:12.366Z,4.10
2023-04-25T13:46:46.979Z,7.17
2023-04-25T13:49:16.502Z,3.07
2023-04-25T13:51:44.693Z,3.20
2023-04-25T13:54:14.220Z,6.37
2023-04-25T13:56:43.434Z,4.47
2023-04-25T13:59:12.338Z,8.70
2023-04-25T14:01:40.580Z,4.70
2023-04-25T14:04:08.721Z,6.00
2023-04-25T14:06:36.815Z,8.57
2023-04-25T14:09:05.657Z,14.20
2023-04-25T14:11:35.193Z,7.60
2023-04-25T14:14:03.642Z,12.00
2023-04-25T14:16:32.360Z,5.03
2023-04-25T14:19:01.244Z,6.67
2023-04-25T14:21:30.205Z,4.27
2023-04-25T14:23:58.290Z,7.33
2023-04-25T14:26:26.698Z,3.83
2023-04-25T14:28:56.199Z,2.33
2023-04-25T14:31:24.374Z,4.20
2023-04-25T14:33:52.776Z,6.00
2023-04-25T14:36:21.675Z,5.80
2023-04-25T14:38:49.802Z,6.67
2023-04-25T14:41:17.975Z,6.57
2023-04-25T14:43:46.279Z,5.70
2023-04-25T14:46:15.819Z,9.23
2023-04-25T14:48:44.512Z,8.03
2023-04-25T14:51:12.735Z,16.70
2023-04-25T14:53:41.877Z,14.03
2023-04-25T14:56:10.565Z,13.93
2023-04-25T14:58:39.817Z,16.13
2023-04-25T15:01:09.238Z,21.13
2023-04-25T15:03:38.993Z,7.30
2023-04-25T15:06:08.376Z,9.73
2023-04-25T15:08:37.026Z,6.50
2023-04-25T15:11:05.903Z,5.50
2023-04-25T15:13:35.803Z,5.90
2023-04-25T15:16:04.095Z,7.47
2023-04-25T15:18:32.371Z,8.57
2023-04-25T15:21:05.380Z,6.13
2023-04-25T15:23:33.749Z,9.77
2023-04-25T15:26:01.903Z,6.87
2023-04-25T15:28:30.265Z,9.73
2023-04-25T15:30:58.909Z,4.43
2023-04-25T15:33:27.592Z,6.10
2023-04-25T15:35:57.497Z,6.23
2023-04-25T15:38:30.162Z,2.93
2023-04-25T15:41:00.359Z,5.47
2023-04-25T15:43:28.559Z,4.47
2023-04-25T15:45:56.923Z,7.80
2023-04-25T15:48:25.366Z,6.73
2023-04-25T15:50:53.697Z,9.50
2023-04-25T15:53:22.002Z,5.57
2023-04-25T15:55:51.701Z,4.37
2023-04-25T15:58:19.874Z,4.77
2023-04-25T16:00:48.978Z,5.40
2023-04-25T16:03:17.659Z,5.17
2023-04-25T16:05:46.036Z,5.17
2023-04-25T16:08:14.238Z,3.77
2023-04-25T16:10:43.021Z,3.30
2023-04-25T16:13:12.948Z,3.00
2023-04-25T16:15:41.169Z,3.13
2023-04-25T16:18:09.567Z,4.60
2023-04-25T16:20:37.752Z,4.17
2023-04-25T16:23:05.856Z,4.43
2023-04-25T16:25:33.986Z,5.30
2023-04-25T16:28:02.348Z,3.90
2023-04-25T16:30:31.941Z,4.53
2023-04-25T16:33:01.782Z,4.80
2023-04-25T16:35:32.379Z,9.03
2023-04-25T16:38:01.036Z,8.70
2023-04-25T16:40:29.394Z,5.90
2023-04-25T16:42:57.731Z,5.87
2023-04-25T16:45:26.254Z,7.70
2023-04-25T16:47:56.005Z,9.40
2023-04-25T16:50:24.334Z,6.47
2023-04-25T16:52:52.746Z,7.70
2023-04-25T16:55:21.410Z,10.07
2023-04-25T16:57:49.618Z,2.97
2023-04-25T17:00:19.636Z,10.00
2023-04-25T17:02:48.014Z,4.40
2023-04-25T17:05:17.684Z,3.60
2023-04-25T17:07:46.027Z,11.77
2023-04-25T17:10:14.162Z,2.60
2023-04-25T17:12:42.344Z,4.93
2023-04-25T17:15:11.933Z,4.70
2023-04-25T17:17:40.241Z,2.83
2023-04-25T17:20:10.904Z,4.37
2023-04-25T17:22:44.690Z,4.07
2023-04-25T17:25:12.905Z,7.03
2023-04-25T17:27:41.016Z,4.47
2023-04-25T17:30:10.336Z,5.40
2023-04-25T17:32:38.459Z,4.87
2023-04-25T17:35:07.607Z,6.80
2023-04-25T17:37:36.067Z,3.10
2023-04-25T17:40:10.827Z,4.13
2023-04-25T17:42:39.411Z,7.97
2023-04-25T17:45:09.499Z,2.40
2023-04-25T17:47:37.727Z,5.43
2023-04-25T17:50:07.351Z,4.30
2023-04-25T17:52:35.590Z,7.13
2023-04-25T17:55:06.289Z,6.73
2023-04-25T17:57:34.460Z,4.83
2023-04-25T18:00:05.779Z,5.97
2023-04-25T18:02:40.609Z,5.37
2023-04-25T18:05:10.939Z,5.87
2023-04-25T18:07:39.449Z,6.80
2023-04-25T18:10:11.845Z,9.70
2023-04-25T18:12:40.161Z,5.23
2023-04-25T18:15:10.713Z,7.90
2023-04-25T18:17:40.854Z,4.93
2023-04-25T18:20:15.136Z,12.87
2023-04-25T18:22:46.721Z,7.63
2023-04-25T18:25:18.410Z,8.43
2023-04-25T18:27:46.853Z,7.10
2023-04-25T18:30:15.472Z,7.93
2023-04-25T18:32:43.662Z,5.80
2023-04-25T18:35:15.088Z,8.40
2023-04-25T18:37:43.352Z,3.77
2023-04-25T18:40:14.132Z,4.30
2023-04-25T18:42:43.985Z,5.17
2023-04-25T18:45:12.990Z,5.67
2023-04-25T18:47:41.391Z,6.00
2023-04-25T18:50:10.912Z,5.80
2023-04-25T18:52:39.052Z,4.33
2023-04-25T18:55:08.413Z,11.63
2023-04-25T18:57:36.645Z,10.03
2023-04-25T19:00:08.641Z,8.03
2023-04-25T19:02:38.018Z,6.73
2023-04-25T19:05:07.446Z,5.27
2023-04-25T19:07:35.563Z,6.13
2023-04-25T19:10:04.682Z,6.90
2023-04-25T19:12:34.245Z,5.77
2023-04-25T19:15:02.749Z,6.93
2023-04-25T19:17:32.479Z,7.60
2023-04-25T19:20:01.222Z,10.50
2023-04-25T19:22:29.856Z,9.23
2023-04-25T19:25:09.016Z,3.67
2023-04-25T19:27:38.553Z,9.33
2023-04-25T19:30:11.067Z,5.70
2023-04-25T19:32:40.698Z,13.60
2023-04-25T19:35:11.816Z,8.73
2023-04-25T19:37:45.959Z,12.33
2023-04-25T19:40:16.132Z,6.43
2023-04-25T19:42:44.390Z,10.10
2023-04-25T19:45:13.596Z,7.20
2023-04-25T19:47:43.804Z,9.83
2023-04-25T19:50:12.941Z,6.20
2023-04-25T19:52:41.763Z,8.37
2023-04-25T19:55:11.427Z,6.67
2023-04-25T19:57:39.731Z,6.87
2023-04-25T20:00:12.940Z,5.53
2023-04-25T20:02:45.435Z,8.13
2023-04-25T20:05:16.622Z,7.60
2023-04-25T20:07:47.367Z,11.00
2023-04-25T20:10:16.609Z,11.63
2023-04-25T20:12:46.267Z,9.87
2023-04-25T20:15:14.618Z,9.13
2023-04-25T20:17:45.809Z,7.47
2023-04-25T20:20:14.294Z,6.13
2023-04-25T20:22:42.491Z,6.33
2023-04-25T20:25:12.297Z,4.80
2023-04-25T20:27:40.845Z,5.27
2023-04-25T20:30:12.123Z,6.90
2023-04-25T20:32:50.069Z,10.37
2023-04-25T20:35:18.359Z,6.80
2023-04-25T20:37:46.583Z,8.17
2023-04-25T20:40:14.906Z,5.70
2023-04-25T20:42:46.141Z,9.13
2023-04-25T20:45:16.586Z,9.80
2023-04-25T20:47:46.634Z,8.67
2023-04-25T20:50:14.952Z,11.53
2023-04-25T20:52:46.102Z,5.57
2023-04-25T20:55:14.269Z,7.50
2023-04-25T20:57:42.414Z,7.57
2023-04-25T21:00:17.838Z,6.23
2023-04-25T21:02:47.841Z,8.20
2023-04-25T21:05:16.140Z,10.50
2023-04-25T21:07:45.551Z,8.63
2023-04-25T21:10:15.541Z,11.17
2023-04-25T21:12:47.600Z,9.97
2023-04-25T21:15:17.738Z,8.60
2023-04-25T21:17:48.198Z,10.33
2023-04-25T21:20:17.883Z,8.87
2023-04-25T21:22:50.394Z,12.67
2023-04-25T21:25:24.133Z,7.70
2023-04-25T21:27:53.543Z,6.40
2023-04-25T21:30:24.274Z,11.83
2023-04-25T21:32:54.423Z,15.87
2023-04-25T21:35:25.816Z,14.13
2023-04-25T21:37:54.053Z,11.77
2023-04-25T21:40:22.562Z,7.33
2023-04-25T21:42:51.838Z,7.83
2023-04-25T21:45:22.152Z,8.47
2023-04-25T21:47:50.692Z,8.70
2023-04-25T21:50:20.865Z,9.93
2023-04-25T21:52:49.215Z,13.87
2023-04-25T21:55:17.585Z,13.03
2023-04-25T21:57:46.525Z,7.00
2023-04-25T22:00:21.918Z,7.87
2023-04-25T22:02:51.034Z,10.33
2023-04-25T22:05:22.578Z,7.53
2023-04-25T22:07:55.092Z,10.67
2023-04-25T22:10:24.077Z,8.87
2023-04-25T22:12:52.388Z,10.13
2023-04-25T22:15:23.458Z,10.13
2023-04-25T22:17:52.674Z,12.40
2023-04-25T22:20:26.111Z,11.67
2023-04-25T22:22:55.626Z,13.70
2023-04-25T22:25:23.990Z,10.00
2023-04-25T22:27:55.353Z,10.17
2023-04-25T22:30:23.759Z,8.47
2023-04-25T22:32:52.082Z,16.50
2023-04-25T22:35:21.693Z,9.07
2023-04-25T22:37:50.233Z,12.90
2023-04-25T22:40:18.492Z,13.37
2023-04-25T22:42:46.731Z,10.57
2023-04-25T22:45:16.022Z,11.50
2023-04-25T22:47:44.291Z,14.27
2023-04-25T22:50:16.651Z,14.03
2023-04-25T22:52:47.980Z,27.13
2023-04-25T22:55:16.393Z,10.13
2023-04-25T22:57:44.577Z,12.40
2023-04-25T23:00:19.666Z,16.30
2023-04-25T23:02:48.646Z,9.77
2023-04-25T23:05:17.166Z,11.07
2023-04-25T23:07:46.585Z,11.23
2023-04-25T23:10:14.971Z,9.90
2023-04-25T23:12:43.910Z,11.20
2023-04-25T23:15:13.433Z,13.90
2023-04-25T23:17:42.112Z,15.53
2023-04-25T23:20:12.068Z,11.97
2023-04-25T23:22:40.810Z,14.53
2023-04-25T23:25:16.930Z,17.00
2023-04-25T23:27:45.323Z,14.13
2023-04-25T23:30:15.273Z,16.20
2023-04-25T23:32:43.677Z,14.23
2023-04-25T23:35:12.288Z,14.57
2023-04-25T23:37:48.990Z,15.30
2023-04-25T23:40:18.624Z,30.20
2023-04-25T23:42:47.475Z,15.47
2023-04-25T23:45:16.652Z,22.10
2023-04-25T23:47:45.064Z,17.23
2023-04-25T23:50:13.772Z,23.63
2023-04-25T23:52:41.949Z,18.33
2023-04-25T23:55:10.748Z,15.70
2023-04-25T23:57:44.183Z,14.20
